East Wellington, Utah
Current Conditions -  °F | °C
As of 4:53 PM on Wednesday 22 Oct 2014 (Local Time) from KPUC Reporting Station
Clear Clear  
Wind Chill: 66°   Ceiling: Unl
Heat Index: 66°   Visibility: 10mi
Dew Point: 27°   Wind: 3mph
Humidity: 23%   Direction: NA
Pressure: 30.15"   Gusts: NA
Location:  39.5265°N, 110.7°W
Report Text: KPUC 222253Z AUTO VRB03KT 10SM CLR 19/M03 A3015 RMK AO2 SLP178 T01891028 TSNO
Loading
Personal Weather Stations






























Interactive Weather Map
Tropical Storm Tracking
New forecast layout! Learn more

10-Day Weather Forecast

Advertisements
Track Severe Weather on mobile